Bermuda Spirit — C6XT2 — position and weather

sailwx.info

Track history (hours):
 
Tides and Currents Weather Stations Pressure Air Temp Water Temp Dewpoint Dewpoint Depression Visibility Wind Speed Wind Dir Waves Ship Positions

Bermuda Spirit

Last reported at 2014-Aug-28 02:19 UTC. Time now 2014-Aug-28 15:22 UTC.
Position N 31°10' E 029°37'.

Length 274 m; draft 9.2 m.

Type: Tanker. MMSI: 311020900.

Date/timePositionNaut miles runAvg speedWind from/ knotsBaromVisibWave heightAir tempDewpointWater temp
2014-Aug-28 02:19N 31°10' E 029°37'0 0.0
2014-Aug-27 15:28N 31°10' E 029°37'0 0.0
2014-Aug-27 14:25N 31°10' E 029°37'0 0.0
2014-Aug-26 22:22N 31°10' E 029°37'0 0.0
2014-Aug-26 21:31N 31°10' E 029°37'0 0.0
2014-Aug-26 20:31N 31°10' E 029°37'0 0.0
2014-Aug-26 15:31N 31°10' E 029°37'0 0.0
2014-Aug-26 14:31N 31°10' E 029°37'0 0.0
2014-Aug-26 13:31N 31°10' E 029°37'0 0.0
2014-Aug-26 12:31N 31°10' E 029°37'0 0.0
2014-Aug-26 11:25N 31°10' E 029°37'0 0.0
2014-Aug-26 10:31N 31°10' E 029°37'0 0.0
2014-Aug-26 09:28N 31°10' E 029°37'0 0.0
2014-Aug-26 05:31N 31°10' E 029°37'0 0.0
2014-Aug-26 04:25N 31°10' E 029°37'0 0.0
2014-Aug-26 02:31N 31°10' E 029°37'0 0.0
2014-Aug-26 01:31N 31°10' E 029°37'0 0.0
2014-Aug-25 22:19N 31°10' E 029°37'0 0.0
2014-Aug-25 21:31N 31°10' E 029°37'0 0.0
2014-Aug-25 20:22N 31°10' E 029°37'0 0.0
2014-Aug-25 19:07N 31°10' E 029°37'0 0.0
2014-Aug-25 18:13N 31°10' E 029°37'0 0.0
2014-Aug-25 17:22N 31°10' E 029°37'0 0.0
2014-Aug-25 16:31N 31°10' E 029°37'0 0.0
2014-Aug-25 15:31N 31°10' E 029°37'0 0.0
2014-Aug-25 14:31N 31°10' E 029°37'0 0.0
2014-Aug-25 13:31N 31°10' E 029°37'0 0.0
2014-Aug-25 12:31N 31°10' E 029°37'0 0.0
2014-Aug-25 11:22N 31°10' E 029°37'0 0.0
2014-Aug-25 07:31N 31°10' E 029°37'0 0.0
2014-Aug-25 06:25N 31°10' E 029°37'0 0.0
2014-Aug-24 23:31N 31°10' E 029°37'0 0.0
2014-Aug-24 22:31N 31°10' E 029°37'0 0.0
2014-Aug-24 21:28N 31°10' E 029°37'0 0.0
2014-Aug-24 20:28N 31°10' E 029°37'0 0.0
2014-Aug-24 19:07N 31°10' E 029°37'0 0.0
2014-Aug-24 17:28N 31°10' E 029°37'1 0.5
2014-Aug-24 16:23N 31°10' E 029°37'4 5.3
2014-Aug-24 15:33N 31°13' E 029°34'1010.2
2014-Aug-24 14:33N 31°22' E 029°28'1010.3
2014-Aug-24 13:33N 31°30' E 029°21'1010.4
2014-Aug-24 12:33N 31°39' E 029°15'1110.6
2014-Aug-24 11:32N 31°49' E 029°09'1110.7
2014-Aug-24 10:31N 31°58' E 029°02'2110.5
2014-Aug-24 08:33N 32°16' E 028°49'1010.5
2014-Aug-24 07:34N 32°25' E 028°43'1514.9
2014-Aug-24 06:33N 32°38' E 028°34'1414.3
2014-Aug-24 05:33N 32°50' E 028°25'14 9.9
2014-Aug-24 04:10N 33°02' E 028°17'6 9.8
2014-Aug-24 03:31N 33°07' E 028°13'2310.1
2014-Aug-24 01:15N 33°27' E 027°59'710.2
2014-Aug-24 00:33N 33°33' E 027°55'21 9.8
2014-Aug-23 22:25N 33°51' E 027°42'186 9.8
2014-Aug-23 03:33N 36°06' E 025°06'1010.2
2014-Aug-23 02:33N 36°12' E 024°56'1010.4
2014-Aug-23 01:33N 36°18' E 024°45'1010.5
2014-Aug-23 00:33N 36°23' E 024°34'1010.1
2014-Aug-22 23:33N 36°28' E 024°23'9 9.2
2014-Aug-22 22:33N 36°34' E 024°15'10 9.7
2014-Aug-22 21:33N 36°42' E 024°08'10 9.8
2014-Aug-22 20:33N 36°51' E 024°03'1010.0
2014-Aug-22 19:33N 37°00' E 023°58'1010.3
2014-Aug-22 18:33N 37°10' E 023°53'1110.6
2014-Aug-22 17:33N 37°20' E 023°50'10 9.8
2014-Aug-22 16:33N 37°29' E 023°47'9 9.4
2014-Aug-22 15:33N 37°38' E 023°43'9 9.5
2014-Aug-22 14:33N 37°47' E 023°37'6 6.5
2014-Aug-22 13:33N 37°52' E 023°32'0 0.1
2014-Aug-22 12:34N 37°52' E 023°32'0 0.0
2014-Aug-22 11:33N 37°52' E 023°32'0 0.1
2014-Aug-22 10:33N 37°51' E 023°32'0 0.0
2014-Aug-22 09:33N 37°51' E 023°32'0 0.0
2014-Aug-22 08:33N 37°51' E 023°32'0 0.1
2014-Aug-22 07:33N 37°51' E 023°32'0 0.1
2014-Aug-22 06:33N 37°51' E 023°32'0 0.0
2014-Aug-22 05:33N 37°51' E 023°32'0 0.0
2014-Aug-22 04:33N 37°51' E 023°32'0 0.0
2014-Aug-22 03:33N 37°51' E 023°32'0 0.0
2014-Aug-22 02:33N 37°51' E 023°32'0 0.0
2014-Aug-22 01:33N 37°51' E 023°32'0 0.0
2014-Aug-22 00:33N 37°51' E 023°32'0 0.0
2014-Aug-21 23:33N 37°51' E 023°32'0 0.1
2014-Aug-21 22:33N 37°51' E 023°32'0 0.0
2014-Aug-21 21:33N 37°51' E 023°32'0 0.0
2014-Aug-21 20:33N 37°51' E 023°32'0 0.0
2014-Aug-21 19:33N 37°51' E 023°32'0 0.1
2014-Aug-21 18:33N 37°52' E 023°32'0 0.0
2014-Aug-21 17:33N 37°52' E 023°32'0 0.1
2014-Aug-21 16:33N 37°52' E 023°32'0 0.0
2014-Aug-21 15:33N 37°52' E 023°32'0 0.0
2014-Aug-21 14:33N 37°52' E 023°32'0 0.0
2014-Aug-21 13:33N 37°52' E 023°32'0 0.0
2014-Aug-21 12:33N 37°52' E 023°32'0 0.0
2014-Aug-21 11:33N 37°52' E 023°32'0 0.1
2014-Aug-21 10:33N 37°52' E 023°32'0 0.2
2014-Aug-21 09:33N 37°51' E 023°32'0 0.0
2014-Aug-21 08:33N 37°51' E 023°32'3 3.1
2014-Aug-21 07:34N 37°51' E 023°36'8 7.6
2014-Aug-21 06:33N 37°45' E 023°42'10 9.6
2014-Aug-21 05:34N 37°36' E 023°47'10 9.9
2014-Aug-21 04:33N 37°27' E 023°50'18 9.0
2014-Aug-21 02:34N 37°10' E 023°58'10 9.7
2014-Aug-21 01:33N 37°00' E 024°00'10 9.8
2014-Aug-21 00:33N 36°50' E 024°03'10 9.6
2014-Aug-20 23:33N 36°42' E 024°09'10 9.8
2014-Aug-20 22:34N 36°34' E 024°15'10 9.9
2014-Aug-20 21:34N 36°26' E 024°23'10 9.9
2014-Aug-20 20:34N 36°18' E 024°30'9 9.4
2014-Aug-20 19:34N 36°10' E 024°37'3 3.2
2014-Aug-20 18:31N 36°08' E 024°39'1 1.3
2014-Aug-20 17:33N 36°08' E 024°38'1 1.0
2014-Aug-20 16:34N 36°09' E 024°37'1 0.7
2014-Aug-20 15:34N 36°09' E 024°36'0 0.4
2014-Aug-20 14:34N 36°09' E 024°35'2 2.1
2014-Aug-20 13:34N 36°08' E 024°38'7 7.1
2014-Aug-20 12:34N 36°03' E 024°43'9 9.0
2014-Aug-20 11:33N 35°57' E 024°52'0 0.5
2014-Aug-20 10:31N 35°57' E 024°52'1 0.8
2014-Aug-20 09:07N 35°58' E 024°51'1 0.7
2014-Aug-20 08:19N 35°58' E 024°51'1 0.7
2014-Aug-20 07:19N 35°58' E 024°50'1 0.8
2014-Aug-20 06:13N 35°59' E 024°50'1 0.9
2014-Aug-20 05:22N 35°60' E 024°49'1 1.0
2014-Aug-20 04:31N 36°00' E 024°48'1 1.1
2014-Aug-20 03:25N 36°01' E 024°47'1 1.1
2014-Aug-20 02:33N 36°01' E 024°46'1 1.2
2014-Aug-20 01:33N 36°02' E 024°45'1 1.3
2014-Aug-20 00:33N 36°03' E 024°44'1 1.3
2014-Aug-19 23:33N 36°03' E 024°42'1 1.4
2014-Aug-19 22:33N 36°04' E 024°41'1 1.3
2014-Aug-19 21:33N 36°05' E 024°39'1 1.2
2014-Aug-19 20:32N 36°05' E 024°38'1 1.2
2014-Aug-19 19:33N 36°06' E 024°36'1 1.0
2014-Aug-19 18:33N 36°06' E 024°35'1 0.9
2014-Aug-19 17:33N 36°07' E 024°34'2 1.5
2014-Aug-19 16:27N 36°08' E 024°33'10 0.6
2014-Aug-19 00:26N 35°60' E 024°26'1 1.2
2014-Aug-18 23:32N 36°01' E 024°26'1 1.2
2014-Aug-18 22:32N 36°02' E 024°27'1 1.3
2014-Aug-18 21:32N 36°03' E 024°28'1 1.4
2014-Aug-18 20:32N 36°04' E 024°29'1 1.4
2014-Aug-18 19:32N 36°05' E 024°30'2 1.5
2014-Aug-18 18:26N 36°06' E 024°32'2 1.6
2014-Aug-18 17:26N 36°07' E 024°33'2 1.7
2014-Aug-18 16:32N 36°08' E 024°35'2 2.0
2014-Aug-18 15:33N 36°08' E 024°37'7 6.8
2014-Aug-18 14:33N 36°03' E 024°42'11 8.5
2014-Aug-18 13:14N 35°54' E 024°51'6 8.4
2014-Aug-18 12:33N 35°50' E 024°55'9 8.1
2014-Aug-18 11:28N 35°43' E 025°02'5 6.0
2014-Aug-18 10:33N 35°39' E 025°06'2 2.3
2014-Aug-18 09:33N 35°40' E 025°04'2 2.4
2014-Aug-18 08:33N 35°42' E 025°02'2 2.5
2014-Aug-18 07:33N 35°44' E 025°00'  
Track history (hours):
 
Tides and Currents Weather Stations Pressure Air Temp Water Temp Dewpoint Dewpoint Depression Visibility Wind Speed Wind Dir Waves Ship Positions

Bermuda Spirit

Last reported at 2014-Aug-28 02:19 UTC. Time now 2014-Aug-28 15:22 UTC.
Position N 31°10' E 029°37'.

Length 274 m; draft 9.2 m.

Type: Tanker. MMSI: 311020900.

Date/timePositionNaut miles runAvg speedWind from/ knotsBaromVisibWave heightAir tempDewpointWater temp
2014-Aug-28 02:19N 31°10' E 029°37'0 0.0
2014-Aug-27 15:28N 31°10' E 029°37'0 0.0
2014-Aug-27 14:25N 31°10' E 029°37'0 0.0
2014-Aug-26 22:22N 31°10' E 029°37'0 0.0
2014-Aug-26 21:31N 31°10' E 029°37'0 0.0
2014-Aug-26 20:31N 31°10' E 029°37'0 0.0
2014-Aug-26 15:31N 31°10' E 029°37'0 0.0
2014-Aug-26 14:31N 31°10' E 029°37'0 0.0
2014-Aug-26 13:31N 31°10' E 029°37'0 0.0
2014-Aug-26 12:31N 31°10' E 029°37'0 0.0
2014-Aug-26 11:25N 31°10' E 029°37'0 0.0
2014-Aug-26 10:31N 31°10' E 029°37'0 0.0
2014-Aug-26 09:28N 31°10' E 029°37'0 0.0
2014-Aug-26 05:31N 31°10' E 029°37'0 0.0
2014-Aug-26 04:25N 31°10' E 029°37'0 0.0
2014-Aug-26 02:31N 31°10' E 029°37'0 0.0
2014-Aug-26 01:31N 31°10' E 029°37'0 0.0
2014-Aug-25 22:19N 31°10' E 029°37'0 0.0
2014-Aug-25 21:31N 31°10' E 029°37'0 0.0
2014-Aug-25 20:22N 31°10' E 029°37'0 0.0
2014-Aug-25 19:07N 31°10' E 029°37'0 0.0
2014-Aug-25 18:13N 31°10' E 029°37'0 0.0
2014-Aug-25 17:22N 31°10' E 029°37'0 0.0
2014-Aug-25 16:31N 31°10' E 029°37'0 0.0
2014-Aug-25 15:31N 31°10' E 029°37'0 0.0
2014-Aug-25 14:31N 31°10' E 029°37'0 0.0
2014-Aug-25 13:31N 31°10' E 029°37'0 0.0
2014-Aug-25 12:31N 31°10' E 029°37'0 0.0
2014-Aug-25 11:22N 31°10' E 029°37'0 0.0
2014-Aug-25 07:31N 31°10' E 029°37'0 0.0
2014-Aug-25 06:25N 31°10' E 029°37'0 0.0
2014-Aug-24 23:31N 31°10' E 029°37'0 0.0
2014-Aug-24 22:31N 31°10' E 029°37'0 0.0
2014-Aug-24 21:28N 31°10' E 029°37'0 0.0
2014-Aug-24 20:28N 31°10' E 029°37'0 0.0
2014-Aug-24 19:07N 31°10' E 029°37'0 0.0
2014-Aug-24 17:28N 31°10' E 029°37'1 0.5
2014-Aug-24 16:23N 31°10' E 029°37'4 5.3
2014-Aug-24 15:33N 31°13' E 029°34'1010.2
2014-Aug-24 14:33N 31°22' E 029°28'1010.3
2014-Aug-24 13:33N 31°30' E 029°21'1010.4
2014-Aug-24 12:33N 31°39' E 029°15'1110.6
2014-Aug-24 11:32N 31°49' E 029°09'1110.7
2014-Aug-24 10:31N 31°58' E 029°02'2110.5
2014-Aug-24 08:33N 32°16' E 028°49'1010.5
2014-Aug-24 07:34N 32°25' E 028°43'1514.9
2014-Aug-24 06:33N 32°38' E 028°34'1414.3
2014-Aug-24 05:33N 32°50' E 028°25'14 9.9
2014-Aug-24 04:10N 33°02' E 028°17'6 9.8
2014-Aug-24 03:31N 33°07' E 028°13'2310.1
2014-Aug-24 01:15N 33°27' E 027°59'710.2
2014-Aug-24 00:33N 33°33' E 027°55'21 9.8
2014-Aug-23 22:25N 33°51' E 027°42'186 9.8
2014-Aug-23 03:33N 36°06' E 025°06'1010.2
2014-Aug-23 02:33N 36°12' E 024°56'1010.4
2014-Aug-23 01:33N 36°18' E 024°45'1010.5
2014-Aug-23 00:33N 36°23' E 024°34'1010.1
2014-Aug-22 23:33N 36°28' E 024°23'9 9.2
2014-Aug-22 22:33N 36°34' E 024°15'10 9.7
2014-Aug-22 21:33N 36°42' E 024°08'10 9.8
2014-Aug-22 20:33N 36°51' E 024°03'1010.0
2014-Aug-22 19:33N 37°00' E 023°58'1010.3
2014-Aug-22 18:33N 37°10' E 023°53'1110.6
2014-Aug-22 17:33N 37°20' E 023°50'10 9.8
2014-Aug-22 16:33N 37°29' E 023°47'9 9.4
2014-Aug-22 15:33N 37°38' E 023°43'9 9.5
2014-Aug-22 14:33N 37°47' E 023°37'6 6.5
2014-Aug-22 13:33N 37°52' E 023°32'0 0.1
2014-Aug-22 12:34N 37°52' E 023°32'0 0.0
2014-Aug-22 11:33N 37°52' E 023°32'0 0.1
2014-Aug-22 10:33N 37°51' E 023°32'0 0.0
2014-Aug-22 09:33N 37°51' E 023°32'0 0.0
2014-Aug-22 08:33N 37°51' E 023°32'0 0.1
2014-Aug-22 07:33N 37°51' E 023°32'0 0.1
2014-Aug-22 06:33N 37°51' E 023°32'0 0.0
2014-Aug-22 05:33N 37°51' E 023°32'0 0.0
2014-Aug-22 04:33N 37°51' E 023°32'0 0.0
2014-Aug-22 03:33N 37°51' E 023°32'0 0.0
2014-Aug-22 02:33N 37°51' E 023°32'0 0.0
2014-Aug-22 01:33N 37°51' E 023°32'0 0.0
2014-Aug-22 00:33N 37°51' E 023°32'0 0.0
2014-Aug-21 23:33N 37°51' E 023°32'0 0.1
2014-Aug-21 22:33N 37°51' E 023°32'0 0.0
2014-Aug-21 21:33N 37°51' E 023°32'0 0.0
2014-Aug-21 20:33N 37°51' E 023°32'0 0.0
2014-Aug-21 19:33N 37°51' E 023°32'0 0.1
2014-Aug-21 18:33N 37°52' E 023°32'0 0.0
2014-Aug-21 17:33N 37°52' E 023°32'0 0.1
2014-Aug-21 16:33N 37°52' E 023°32'0 0.0
2014-Aug-21 15:33N 37°52' E 023°32'0 0.0
2014-Aug-21 14:33N 37°52' E 023°32'0 0.0
2014-Aug-21 13:33N 37°52' E 023°32'0 0.0
2014-Aug-21 12:33N 37°52' E 023°32'0 0.0
2014-Aug-21 11:33N 37°52' E 023°32'0 0.1
2014-Aug-21 10:33N 37°52' E 023°32'0 0.2
2014-Aug-21 09:33N 37°51' E 023°32'0 0.0
2014-Aug-21 08:33N 37°51' E 023°32'3 3.1
2014-Aug-21 07:34N 37°51' E 023°36'8 7.6
2014-Aug-21 06:33N 37°45' E 023°42'10 9.6
2014-Aug-21 05:34N 37°36' E 023°47'10 9.9
2014-Aug-21 04:33N 37°27' E 023°50'18 9.0
2014-Aug-21 02:34N 37°10' E 023°58'10 9.7
2014-Aug-21 01:33N 37°00' E 024°00'10 9.8
2014-Aug-21 00:33N 36°50' E 024°03'10 9.6
2014-Aug-20 23:33N 36°42' E 024°09'10 9.8
2014-Aug-20 22:34N 36°34' E 024°15'10 9.9
2014-Aug-20 21:34N 36°26' E 024°23'10 9.9
2014-Aug-20 20:34N 36°18' E 024°30'9 9.4
2014-Aug-20 19:34N 36°10' E 024°37'3 3.2
2014-Aug-20 18:31N 36°08' E 024°39'1 1.3
2014-Aug-20 17:33N 36°08' E 024°38'1 1.0
2014-Aug-20 16:34N 36°09' E 024°37'1 0.7
2014-Aug-20 15:34N 36°09' E 024°36'0 0.4
2014-Aug-20 14:34N 36°09' E 024°35'2 2.1
2014-Aug-20 13:34N 36°08' E 024°38'7 7.1
2014-Aug-20 12:34N 36°03' E 024°43'9 9.0
2014-Aug-20 11:33N 35°57' E 024°52'0 0.5
2014-Aug-20 10:31N 35°57' E 024°52'1 0.8
2014-Aug-20 09:07N 35°58' E 024°51'1 0.7
2014-Aug-20 08:19N 35°58' E 024°51'1 0.7
2014-Aug-20 07:19N 35°58' E 024°50'1 0.8
2014-Aug-20 06:13N 35°59' E 024°50'1 0.9
2014-Aug-20 05:22N 35°60' E 024°49'1 1.0
2014-Aug-20 04:31N 36°00' E 024°48'1 1.1
2014-Aug-20 03:25N 36°01' E 024°47'1 1.1
2014-Aug-20 02:33N 36°01' E 024°46'1 1.2
2014-Aug-20 01:33N 36°02' E 024°45'1 1.3
2014-Aug-20 00:33N 36°03' E 024°44'1 1.3
2014-Aug-19 23:33N 36°03' E 024°42'1 1.4
2014-Aug-19 22:33N 36°04' E 024°41'1 1.3
2014-Aug-19 21:33N 36°05' E 024°39'1 1.2
2014-Aug-19 20:32N 36°05' E 024°38'1 1.2
2014-Aug-19 19:33N 36°06' E 024°36'1 1.0
2014-Aug-19 18:33N 36°06' E 024°35'1 0.9
2014-Aug-19 17:33N 36°07' E 024°34'2 1.5
2014-Aug-19 16:27N 36°08' E 024°33'10 0.6
2014-Aug-19 00:26N 35°60' E 024°26'1 1.2
2014-Aug-18 23:32N 36°01' E 024°26'1 1.2
2014-Aug-18 22:32N 36°02' E 024°27'1 1.3
2014-Aug-18 21:32N 36°03' E 024°28'1 1.4
2014-Aug-18 20:32N 36°04' E 024°29'1 1.4
2014-Aug-18 19:32N 36°05' E 024°30'2 1.5
2014-Aug-18 18:26N 36°06' E 024°32'2 1.6
2014-Aug-18 17:26N 36°07' E 024°33'2 1.7
2014-Aug-18 16:32N 36°08' E 024°35'2 2.0
2014-Aug-18 15:33N 36°08' E 024°37'7 6.8
2014-Aug-18 14:33N 36°03' E 024°42'11 8.5
2014-Aug-18 13:14N 35°54' E 024°51'6 8.4
2014-Aug-18 12:33N 35°50' E 024°55'9 8.1
2014-Aug-18 11:28N 35°43' E 025°02'5 6.0
2014-Aug-18 10:33N 35°39' E 025°06'2 2.3
2014-Aug-18 09:33N 35°40' E 025°04'2 2.4
2014-Aug-18 08:33N 35°42' E 025°02'2 2.5
2014-Aug-18 07:33N 35°44' E 025°00'  

Dump ship's entire track history